sensor_id;sensor_type;location;lat;lon;timestamp;P1;durP1;ratioP1;P2;durP2;ratioP2
80503;SDS011;69825;51.190;6.808;2023-07-13T00:01:46;0.82;;;0.82;;
80503;SDS011;69825;51.190;6.808;2023-07-13T00:04:14;1.23;;;0.95;;
80503;SDS011;69825;51.190;6.808;2023-07-13T00:06:40;0.73;;;0.73;;
80503;SDS011;69825;51.190;6.808;2023-07-13T00:09:09;0.82;;;0.80;;
80503;SDS011;69825;51.190;6.808;2023-07-13T00:11:37;1.05;;;0.95;;
80503;SDS011;69825;51.190;6.808;2023-07-13T00:14:03;1.55;;;0.93;;
80503;SDS011;69825;51.190;6.808;2023-07-13T00:16:28;0.95;;;0.95;;
80503;SDS011;69825;51.190;6.808;2023-07-13T00:18:54;1.15;;;0.88;;
80503;SDS011;69825;51.190;6.808;2023-07-13T00:21:19;0.90;;;0.90;;
80503;SDS011;69825;51.190;6.808;2023-07-13T00:23:44;0.95;;;0.93;;
80503;SDS011;69825;51.190;6.808;2023-07-13T00:26:10;2.35;;;1.05;;
80503;SDS011;69825;51.190;6.808;2023-07-13T00:28:37;1.00;;;1.00;;
80503;SDS011;69825;51.190;6.808;2023-07-13T00:31:03;0.70;;;0.70;;
80503;SDS011;69825;51.190;6.808;2023-07-13T00:33:28;2.08;;;1.10;;
80503;SDS011;69825;51.190;6.808;2023-07-13T00:35:57;1.10;;;1.00;;
80503;SDS011;69825;51.190;6.808;2023-07-13T00:38:22;0.90;;;0.90;;
80503;SDS011;69825;51.190;6.808;2023-07-13T00:40:48;1.48;;;0.90;;
80503;SDS011;69825;51.190;6.808;2023-07-13T00:43:15;1.00;;;0.90;;
80503;SDS011;69825;51.190;6.808;2023-07-13T00:48:09;0.80;;;0.80;;
80503;SDS011;69825;51.190;6.808;2023-07-13T00:50:40;1.08;;;0.80;;
80503;SDS011;69825;51.190;6.808;2023-07-13T00:53:08;0.80;;;0.80;;
80503;SDS011;69825;51.190;6.808;2023-07-13T00:55:34;1.48;;;0.95;;
80503;SDS011;69825;51.190;6.808;2023-07-13T00:58:00;0.80;;;0.80;;
80503;SDS011;69825;51.190;6.808;2023-07-13T01:00:27;1.58;;;0.90;;
80503;SDS011;69825;51.190;6.808;2023-07-13T01:02:54;0.80;;;0.80;;
80503;SDS011;69825;51.190;6.808;2023-07-13T01:05:21;0.73;;;0.73;;
80503;SDS011;69825;51.190;6.808;2023-07-13T01:07:48;0.75;;;0.70;;
80503;SDS011;69825;51.190;6.808;2023-07-13T01:10:15;1.13;;;1.02;;
80503;SDS011;69825;51.190;6.808;2023-07-13T01:12:41;0.80;;;0.80;;
80503;SDS011;69825;51.190;6.808;2023-07-13T01:15:32;1.65;;;0.90;;
80503;SDS011;69825;51.190;6.808;2023-07-13T01:18:19;0.88;;;0.75;;
80503;SDS011;69825;51.190;6.808;2023-07-13T01:20:50;1.63;;;0.80;;
80503;SDS011;69825;51.190;6.808;2023-07-13T01:23:23;1.45;;;0.85;;
80503;SDS011;69825;51.190;6.808;2023-07-13T01:25:51;0.80;;;0.80;;
80503;SDS011;69825;51.190;6.808;2023-07-13T01:28:17;1.30;;;1.05;;
80503;SDS011;69825;51.190;6.808;2023-07-13T01:30:43;1.40;;;1.02;;
80503;SDS011;69825;51.190;6.808;2023-07-13T01:33:11;0.80;;;0.80;;
80503;SDS011;69825;51.190;6.808;2023-07-13T01:35:41;1.70;;;1.00;;
80503;SDS011;69825;51.190;6.808;2023-07-13T01:38:07;0.77;;;0.77;;
80503;SDS011;69825;51.190;6.808;2023-07-13T01:40:33;0.88;;;0.80;;
80503;SDS011;69825;51.190;6.808;2023-07-13T01:43:00;0.80;;;0.80;;
80503;SDS011;69825;51.190;6.808;2023-07-13T01:45:26;0.75;;;0.75;;
80503;SDS011;69825;51.190;6.808;2023-07-13T01:47:51;0.80;;;0.80;;
80503;SDS011;69825;51.190;6.808;2023-07-13T01:50:16;0.90;;;0.80;;
80503;SDS011;69825;51.190;6.808;2023-07-13T01:52:42;0.98;;;0.88;;
80503;SDS011;69825;51.190;6.808;2023-07-13T01:55:07;1.10;;;0.98;;
80503;SDS011;69825;51.190;6.808;2023-07-13T01:57:33;1.75;;;0.98;;
80503;SDS011;69825;51.190;6.808;2023-07-13T01:59:58;1.42;;;1.00;;
80503;SDS011;69825;51.190;6.808;2023-07-13T02:05:06;1.05;;;0.80;;
80503;SDS011;69825;51.190;6.808;2023-07-13T02:07:32;1.35;;;0.98;;
80503;SDS011;69825;51.190;6.808;2023-07-13T02:10:00;2.25;;;0.95;;
80503;SDS011;69825;51.190;6.808;2023-07-13T02:12:26;1.13;;;0.90;;
80503;SDS011;69825;51.190;6.808;2023-07-13T02:14:51;0.80;;;0.80;;
80503;SDS011;69825;51.190;6.808;2023-07-13T02:17:16;1.58;;;0.88;;
80503;SDS011;69825;51.190;6.808;2023-07-13T02:19:42;0.70;;;0.70;;
80503;SDS011;69825;51.190;6.808;2023-07-13T02:22:07;1.00;;;1.00;;
80503;SDS011;69825;51.190;6.808;2023-07-13T02:24:32;1.52;;;0.80;;
80503;SDS011;69825;51.190;6.808;2023-07-13T02:26:58;0.80;;;0.80;;
80503;SDS011;69825;51.190;6.808;2023-07-13T02:29:23;1.10;;;1.00;;
80503;SDS011;69825;51.190;6.808;2023-07-13T02:31:49;1.00;;;0.90;;
80503;SDS011;69825;51.190;6.808;2023-07-13T02:34:14;0.68;;;0.68;;
80503;SDS011;69825;51.190;6.808;2023-07-13T02:36:39;1.15;;;1.02;;
80503;SDS011;69825;51.190;6.808;2023-07-13T02:39:05;1.13;;;0.85;;
80503;SDS011;69825;51.190;6.808;2023-07-13T02:41:31;2.05;;;1.00;;
80503;SDS011;69825;51.190;6.808;2023-07-13T02:43:59;0.85;;;0.85;;
80503;SDS011;69825;51.190;6.808;2023-07-13T02:46:29;0.80;;;0.80;;
80503;SDS011;69825;51.190;6.808;2023-07-13T02:48:55;0.90;;;0.70;;
80503;SDS011;69825;51.190;6.808;2023-07-13T02:51:20;1.02;;;0.75;;
80503;SDS011;69825;51.190;6.808;2023-07-13T02:53:46;1.20;;;0.70;;
80503;SDS011;69825;51.190;6.808;2023-07-13T02:56:11;0.88;;;0.85;;
80503;SDS011;69825;51.190;6.808;2023-07-13T02:58:37;1.50;;;1.08;;
80503;SDS011;69825;51.190;6.808;2023-07-13T03:01:06;1.17;;;0.90;;
80503;SDS011;69825;51.190;6.808;2023-07-13T03:03:32;1.10;;;1.00;;
80503;SDS011;69825;51.190;6.808;2023-07-13T03:05:59;1.05;;;0.80;;
80503;SDS011;69825;51.190;6.808;2023-07-13T03:08:27;0.70;;;0.70;;
80503;SDS011;69825;51.190;6.808;2023-07-13T03:11:02;0.70;;;0.70;;
80503;SDS011;69825;51.190;6.808;2023-07-13T03:13:30;0.90;;;0.90;;
80503;SDS011;69825;51.190;6.808;2023-07-13T03:15:55;1.02;;;0.80;;
80503;SDS011;69825;51.190;6.808;2023-07-13T03:18:21;0.88;;;0.70;;
80503;SDS011;69825;51.190;6.808;2023-07-13T03:20:46;1.30;;;0.95;;
80503;SDS011;69825;51.190;6.808;2023-07-13T03:23:14;0.70;;;0.70;;
80503;SDS011;69825;51.190;6.808;2023-07-13T03:25:40;1.13;;;1.00;;
80503;SDS011;69825;51.190;6.808;2023-07-13T03:28:05;0.88;;;0.88;;
80503;SDS011;69825;51.190;6.808;2023-07-13T03:30:30;1.00;;;0.82;;
80503;SDS011;69825;51.190;6.808;2023-07-13T03:32:56;0.77;;;0.77;;
80503;SDS011;69825;51.190;6.808;2023-07-13T03:35:21;2.20;;;0.88;;
80503;SDS011;69825;51.190;6.808;2023-07-13T03:37:46;0.82;;;0.73;;
80503;SDS011;69825;51.190;6.808;2023-07-13T03:40:12;1.58;;;0.85;;
80503;SDS011;69825;51.190;6.808;2023-07-13T03:42:37;0.82;;;0.80;;
80503;SDS011;69825;51.190;6.808;2023-07-13T03:45:03;1.42;;;0.77;;
80503;SDS011;69825;51.190;6.808;2023-07-13T03:47:28;0.73;;;0.73;;
80503;SDS011;69825;51.190;6.808;2023-07-13T03:49:54;0.70;;;0.70;;
80503;SDS011;69825;51.190;6.808;2023-07-13T03:52:19;1.10;;;0.90;;
80503;SDS011;69825;51.190;6.808;2023-07-13T03:54:44;1.00;;;0.80;;
80503;SDS011;69825;51.190;6.808;2023-07-13T03:57:10;0.60;;;0.60;;
80503;SDS011;69825;51.190;6.808;2023-07-13T03:59:35;1.20;;;0.70;;
80503;SDS011;69825;51.190;6.808;2023-07-13T04:02:01;0.88;;;0.75;;
80503;SDS011;69825;51.190;6.808;2023-07-13T04:04:26;1.83;;;1.05;;
80503;SDS011;69825;51.190;6.808;2023-07-13T04:06:51;0.75;;;0.75;;
80503;SDS011;69825;51.190;6.808;2023-07-13T04:09:17;0.75;;;0.75;;
80503;SDS011;69825;51.190;6.808;2023-07-13T04:11:43;0.77;;;0.77;;
80503;SDS011;69825;51.190;6.808;2023-07-13T04:14:09;1.48;;;0.70;;
80503;SDS011;69825;51.190;6.808;2023-07-13T04:16:34;0.75;;;0.75;;
80503;SDS011;69825;51.190;6.808;2023-07-13T04:18:59;1.33;;;0.95;;
80503;SDS011;69825;51.190;6.808;2023-07-13T04:21:26;1.23;;;0.75;;
80503;SDS011;69825;51.190;6.808;2023-07-13T04:23:53;0.80;;;0.80;;
80503;SDS011;69825;51.190;6.808;2023-07-13T04:26:18;1.08;;;0.77;;
80503;SDS011;69825;51.190;6.808;2023-07-13T04:28:46;0.77;;;0.70;;
80503;SDS011;69825;51.190;6.808;2023-07-13T04:31:12;1.10;;;0.77;;
80503;SDS011;69825;51.190;6.808;2023-07-13T04:33:37;1.02;;;0.80;;
80503;SDS011;69825;51.190;6.808;2023-07-13T04:36:03;0.93;;;0.93;;
80503;SDS011;69825;51.190;6.808;2023-07-13T04:38:30;0.70;;;0.70;;
80503;SDS011;69825;51.190;6.808;2023-07-13T04:40:58;0.80;;;0.80;;
80503;SDS011;69825;51.190;6.808;2023-07-13T04:43:25;0.65;;;0.65;;
80503;SDS011;69825;51.190;6.808;2023-07-13T04:45:52;0.85;;;0.75;;
80503;SDS011;69825;51.190;6.808;2023-07-13T04:48:18;0.70;;;0.70;;
80503;SDS011;69825;51.190;6.808;2023-07-13T04:50:44;1.38;;;0.90;;
80503;SDS011;69825;51.190;6.808;2023-07-13T04:53:10;1.05;;;0.95;;
80503;SDS011;69825;51.190;6.808;2023-07-13T04:55:36;0.85;;;0.80;;
80503;SDS011;69825;51.190;6.808;2023-07-13T04:58:02;0.93;;;0.80;;
80503;SDS011;69825;51.190;6.808;2023-07-13T05:00:28;1.10;;;0.90;;
80503;SDS011;69825;51.190;6.808;2023-07-13T05:02:54;0.75;;;0.70;;
80503;SDS011;69825;51.190;6.808;2023-07-13T05:05:21;1.25;;;0.80;;
80503;SDS011;69825;51.190;6.808;2023-07-13T05:07:46;0.70;;;0.70;;
80503;SDS011;69825;51.190;6.808;2023-07-13T05:10:11;1.60;;;0.88;;
80503;SDS011;69825;51.190;6.808;2023-07-13T05:12:37;1.17;;;0.80;;
80503;SDS011;69825;51.190;6.808;2023-07-13T05:15:02;1.88;;;0.85;;
80503;SDS011;69825;51.190;6.808;2023-07-13T05:17:28;1.38;;;1.00;;
80503;SDS011;69825;51.190;6.808;2023-07-13T05:19:54;1.55;;;1.10;;
80503;SDS011;69825;51.190;6.808;2023-07-13T05:22:19;2.15;;;1.15;;
80503;SDS011;69825;51.190;6.808;2023-07-13T05:24:44;1.60;;;1.00;;
80503;SDS011;69825;51.190;6.808;2023-07-13T05:27:10;2.15;;;1.30;;
80503;SDS011;69825;51.190;6.808;2023-07-13T05:29:36;1.48;;;1.08;;
80503;SDS011;69825;51.190;6.808;2023-07-13T05:32:01;2.08;;;1.02;;
80503;SDS011;69825;51.190;6.808;2023-07-13T05:34:26;1.75;;;1.00;;
80503;SDS011;69825;51.190;6.808;2023-07-13T05:36:52;2.45;;;1.08;;
80503;SDS011;69825;51.190;6.808;2023-07-13T05:39:17;1.65;;;1.10;;
80503;SDS011;69825;51.190;6.808;2023-07-13T05:41:43;2.92;;;1.15;;
80503;SDS011;69825;51.190;6.808;2023-07-13T05:44:09;1.77;;;1.05;;
80503;SDS011;69825;51.190;6.808;2023-07-13T05:46:34;2.42;;;1.20;;
80503;SDS011;69825;51.190;6.808;2023-07-13T05:49:00;1.30;;;1.00;;
80503;SDS011;69825;51.190;6.808;2023-07-13T05:51:25;3.20;;;1.10;;
80503;SDS011;69825;51.190;6.808;2023-07-13T05:53:50;1.90;;;1.25;;
80503;SDS011;69825;51.190;6.808;2023-07-13T05:56:16;2.05;;;1.00;;
80503;SDS011;69825;51.190;6.808;2023-07-13T05:58:41;1.63;;;1.00;;
80503;SDS011;69825;51.190;6.808;2023-07-13T06:01:08;2.60;;;1.20;;
80503;SDS011;69825;51.190;6.808;2023-07-13T06:03:36;1.33;;;1.00;;
80503;SDS011;69825;51.190;6.808;2023-07-13T06:06:03;1.83;;;1.10;;
80503;SDS011;69825;51.190;6.808;2023-07-13T06:08:29;1.67;;;1.10;;
80503;SDS011;69825;51.190;6.808;2023-07-13T06:10:54;1.83;;;1.10;;
80503;SDS011;69825;51.190;6.808;2023-07-13T06:13:26;3.42;;;1.30;;
80503;SDS011;69825;51.190;6.808;2023-07-13T06:15:51;1.70;;;1.02;;
80503;SDS011;69825;51.190;6.808;2023-07-13T06:18:16;1.77;;;1.13;;
80503;SDS011;69825;51.190;6.808;2023-07-13T06:20:42;2.13;;;1.30;;
80503;SDS011;69825;51.190;6.808;2023-07-13T06:23:07;3.67;;;1.05;;
80503;SDS011;69825;51.190;6.808;2023-07-13T06:25:33;1.55;;;1.13;;
80503;SDS011;69825;51.190;6.808;2023-07-13T06:27:58;1.85;;;1.05;;
80503;SDS011;69825;51.190;6.808;2023-07-13T06:30:24;1.83;;;1.00;;
80503;SDS011;69825;51.190;6.808;2023-07-13T06:32:49;2.15;;;1.05;;
80503;SDS011;69825;51.190;6.808;2023-07-13T06:35:15;1.08;;;0.98;;
80503;SDS011;69825;51.190;6.808;2023-07-13T06:37:40;2.03;;;1.10;;
80503;SDS011;69825;51.190;6.808;2023-07-13T06:40:06;1.45;;;1.10;;
80503;SDS011;69825;51.190;6.808;2023-07-13T06:42:31;2.38;;;1.23;;
80503;SDS011;69825;51.190;6.808;2023-07-13T06:44:57;2.45;;;1.10;;
80503;SDS011;69825;51.190;6.808;2023-07-13T06:47:22;1.77;;;1.10;;
80503;SDS011;69825;51.190;6.808;2023-07-13T06:49:48;2.65;;;1.38;;
80503;SDS011;69825;51.190;6.808;2023-07-13T06:52:13;3.05;;;1.30;;
80503;SDS011;69825;51.190;6.808;2023-07-13T06:54:38;1.23;;;1.00;;
80503;SDS011;69825;51.190;6.808;2023-07-13T06:57:04;2.20;;;1.00;;
80503;SDS011;69825;51.190;6.808;2023-07-13T06:59:30;2.58;;;1.20;;
80503;SDS011;69825;51.190;6.808;2023-07-13T07:01:55;1.85;;;1.20;;
80503;SDS011;69825;51.190;6.808;2023-07-13T07:04:20;1.58;;;1.10;;
80503;SDS011;69825;51.190;6.808;2023-07-13T07:06:46;1.80;;;1.10;;
80503;SDS011;69825;51.190;6.808;2023-07-13T07:09:12;2.85;;;1.00;;
80503;SDS011;69825;51.190;6.808;2023-07-13T07:11:37;1.80;;;0.90;;
80503;SDS011;69825;51.190;6.808;2023-07-13T07:14:03;2.88;;;1.35;;
80503;SDS011;69825;51.190;6.808;2023-07-13T07:16:28;1.80;;;1.35;;
80503;SDS011;69825;51.190;6.808;2023-07-13T07:18:53;1.63;;;1.00;;
80503;SDS011;69825;51.190;6.808;2023-07-13T07:21:19;1.63;;;1.20;;
80503;SDS011;69825;51.190;6.808;2023-07-13T07:23:44;1.77;;;1.02;;
80503;SDS011;69825;51.190;6.808;2023-07-13T07:26:10;3.10;;;1.13;;
80503;SDS011;69825;51.190;6.808;2023-07-13T07:28:36;3.10;;;1.23;;
80503;SDS011;69825;51.190;6.808;2023-07-13T07:31:02;1.30;;;1.10;;
80503;SDS011;69825;51.190;6.808;2023-07-13T07:33:27;1.58;;;1.00;;
80503;SDS011;69825;51.190;6.808;2023-07-13T07:35:52;1.73;;;1.08;;
80503;SDS011;69825;51.190;6.808;2023-07-13T07:38:18;2.53;;;1.00;;
80503;SDS011;69825;51.190;6.808;2023-07-13T07:40:44;2.33;;;1.30;;
80503;SDS011;69825;51.190;6.808;2023-07-13T07:43:09;1.88;;;1.20;;
80503;SDS011;69825;51.190;6.808;2023-07-13T07:45:36;1.95;;;1.20;;
80503;SDS011;69825;51.190;6.808;2023-07-13T07:48:03;1.30;;;1.13;;
80503;SDS011;69825;51.190;6.808;2023-07-13T07:50:29;3.17;;;1.20;;
80503;SDS011;69825;51.190;6.808;2023-07-13T07:52:54;2.08;;;1.25;;
80503;SDS011;69825;51.190;6.808;2023-07-13T07:55:23;1.60;;;1.08;;
80503;SDS011;69825;51.190;6.808;2023-07-13T07:57:51;1.80;;;1.20;;
80503;SDS011;69825;51.190;6.808;2023-07-13T08:00:17;1.52;;;1.10;;
80503;SDS011;69825;51.190;6.808;2023-07-13T08:02:43;2.17;;;1.10;;
80503;SDS011;69825;51.190;6.808;2023-07-13T08:05:09;1.88;;;1.20;;
80503;SDS011;69825;51.190;6.808;2023-07-13T08:07:36;1.60;;;1.10;;
80503;SDS011;69825;51.190;6.808;2023-07-13T08:10:02;1.77;;;1.25;;
80503;SDS011;69825;51.190;6.808;2023-07-13T08:12:28;1.75;;;0.98;;
80503;SDS011;69825;51.190;6.808;2023-07-13T08:14:53;2.08;;;1.20;;
80503;SDS011;69825;51.190;6.808;2023-07-13T08:17:19;1.60;;;1.27;;
80503;SDS011;69825;51.190;6.808;2023-07-13T08:19:45;2.38;;;1.30;;
80503;SDS011;69825;51.190;6.808;2023-07-13T08:22:10;1.20;;;1.10;;
80503;SDS011;69825;51.190;6.808;2023-07-13T08:24:36;2.08;;;1.30;;
80503;SDS011;69825;51.190;6.808;2023-07-13T08:27:01;2.15;;;1.05;;
80503;SDS011;69825;51.190;6.808;2023-07-13T08:29:26;2.28;;;1.50;;
80503;SDS011;69825;51.190;6.808;2023-07-13T08:31:52;1.90;;;1.00;;
80503;SDS011;69825;51.190;6.808;2023-07-13T08:34:17;2.78;;;1.40;;
80503;SDS011;69825;51.190;6.808;2023-07-13T08:36:42;2.97;;;1.30;;
80503;SDS011;69825;51.190;6.808;2023-07-13T08:39:08;1.80;;;1.08;;
80503;SDS011;69825;51.190;6.808;2023-07-13T08:41:33;4.18;;;1.52;;
80503;SDS011;69825;51.190;6.808;2023-07-13T08:44:00;3.88;;;1.40;;
80503;SDS011;69825;51.190;6.808;2023-07-13T08:46:32;3.50;;;1.60;;
80503;SDS011;69825;51.190;6.808;2023-07-13T08:49:05;2.38;;;1.40;;
80503;SDS011;69825;51.190;6.808;2023-07-13T08:51:44;3.83;;;1.40;;
80503;SDS011;69825;51.190;6.808;2023-07-13T08:54:37;3.80;;;1.30;;
80503;SDS011;69825;51.190;6.808;2023-07-13T08:57:17;3.45;;;1.70;;
80503;SDS011;69825;51.190;6.808;2023-07-13T08:59:46;5.35;;;1.60;;
80503;SDS011;69825;51.190;6.808;2023-07-13T09:02:20;4.05;;;1.60;;
80503;SDS011;69825;51.190;6.808;2023-07-13T09:15:41;5.18;;;1.77;;
80503;SDS011;69825;51.190;6.808;2023-07-13T09:18:18;5.28;;;1.60;;
80503;SDS011;69825;51.190;6.808;2023-07-13T09:20:50;4.25;;;1.73;;
80503;SDS011;69825;51.190;6.808;2023-07-13T09:23:20;4.90;;;1.95;;
80503;SDS011;69825;51.190;6.808;2023-07-13T09:25:48;4.60;;;1.67;;
80503;SDS011;69825;51.190;6.808;2023-07-13T09:28:22;4.45;;;1.75;;
80503;SDS011;69825;51.190;6.808;2023-07-13T09:31:11;3.67;;;1.65;;
80503;SDS011;69825;51.190;6.808;2023-07-13T09:33:40;4.55;;;1.77;;
80503;SDS011;69825;51.190;6.808;2023-07-13T09:36:16;3.40;;;1.55;;
80503;SDS011;69825;51.190;6.808;2023-07-13T09:38:44;4.75;;;1.90;;
80503;SDS011;69825;51.190;6.808;2023-07-13T09:41:19;3.63;;;1.58;;
80503;SDS011;69825;51.190;6.808;2023-07-13T09:44:11;7.32;;;1.92;;
80503;SDS011;69825;51.190;6.808;2023-07-13T09:46:39;3.70;;;1.80;;
80503;SDS011;69825;51.190;6.808;2023-07-13T09:49:18;5.20;;;1.90;;
80503;SDS011;69825;51.190;6.808;2023-07-13T09:51:48;3.45;;;1.65;;
80503;SDS011;69825;51.190;6.808;2023-07-13T09:54:24;4.80;;;1.50;;
80503;SDS011;69825;51.190;6.808;2023-07-13T09:56:54;4.95;;;1.67;;
80503;SDS011;69825;51.190;6.808;2023-07-13T09:59:21;4.70;;;1.88;;
80503;SDS011;69825;51.190;6.808;2023-07-13T10:01:49;4.72;;;1.75;;
80503;SDS011;69825;51.190;6.808;2023-07-13T10:04:16;4.57;;;1.85;;
80503;SDS011;69825;51.190;6.808;2023-07-13T10:06:46;3.35;;;1.65;;
80503;SDS011;69825;51.190;6.808;2023-07-13T10:09:15;4.95;;;1.67;;
80503;SDS011;69825;51.190;6.808;2023-07-13T10:11:41;3.08;;;1.60;;
80503;SDS011;69825;51.190;6.808;2023-07-13T10:14:20;3.08;;;1.50;;
80503;SDS011;69825;51.190;6.808;2023-07-13T10:16:52;5.43;;;1.73;;
80503;SDS011;69825;51.190;6.808;2023-07-13T10:21:54;3.33;;;1.50;;
80503;SDS011;69825;51.190;6.808;2023-07-13T10:24:22;4.25;;;1.48;;
80503;SDS011;69825;51.190;6.808;2023-07-13T10:29:32;2.45;;;1.30;;
80503;SDS011;69825;51.190;6.808;2023-07-13T10:32:07;5.10;;;1.63;;
80503;SDS011;69825;51.190;6.808;2023-07-13T10:34:35;4.57;;;1.65;;
80503;SDS011;69825;51.190;6.808;2023-07-13T10:37:01;2.95;;;1.27;;
80503;SDS011;69825;51.190;6.808;2023-07-13T10:39:27;6.10;;;1.58;;
80503;SDS011;69825;51.190;6.808;2023-07-13T10:41:55;6.93;;;1.70;;
80503;SDS011;69825;51.190;6.808;2023-07-13T10:44:25;3.00;;;1.63;;
80503;SDS011;69825;51.190;6.808;2023-07-13T10:46:56;4.05;;;1.67;;
80503;SDS011;69825;51.190;6.808;2023-07-13T10:49:26;4.70;;;1.95;;
80503;SDS011;69825;51.190;6.808;2023-07-13T10:51:52;4.50;;;1.70;;
80503;SDS011;69825;51.190;6.808;2023-07-13T10:54:22;4.35;;;1.75;;
80503;SDS011;69825;51.190;6.808;2023-07-13T10:59:35;6.50;;;1.60;;
80503;SDS011;69825;51.190;6.808;2023-07-13T11:04:39;4.07;;;1.50;;
80503;SDS011;69825;51.190;6.808;2023-07-13T11:07:16;5.78;;;1.55;;
80503;SDS011;69825;51.190;6.808;2023-07-13T11:09:52;4.15;;;1.58;;
80503;SDS011;69825;51.190;6.808;2023-07-13T11:19:53;4.15;;;1.60;;
80503;SDS011;69825;51.190;6.808;2023-07-13T11:22:22;2.80;;;1.48;;
80503;SDS011;69825;51.190;6.808;2023-07-13T11:25:40;3.05;;;1.50;;
80503;SDS011;69825;51.190;6.808;2023-07-13T11:28:11;2.53;;;1.38;;
80503;SDS011;69825;51.190;6.808;2023-07-13T11:33:22;3.10;;;1.40;;
80503;SDS011;69825;51.190;6.808;2023-07-13T11:36:05;3.38;;;1.60;;
80503;SDS011;69825;51.190;6.808;2023-07-13T11:38:49;4.47;;;1.40;;
80503;SDS011;69825;51.190;6.808;2023-07-13T11:41:23;2.72;;;1.48;;
80503;SDS011;69825;51.190;6.808;2023-07-13T11:43:55;2.65;;;1.40;;
80503;SDS011;69825;51.190;6.808;2023-07-13T11:46:30;3.95;;;1.90;;
80503;SDS011;69825;51.190;6.808;2023-07-13T11:48:55;2.20;;;1.40;;
80503;SDS011;69825;51.190;6.808;2023-07-13T11:51:31;1.77;;;1.25;;
80503;SDS011;69825;51.190;6.808;2023-07-13T11:54:00;2.60;;;1.52;;
80503;SDS011;69825;51.190;6.808;2023-07-13T11:56:28;4.78;;;1.63;;
80503;SDS011;69825;51.190;6.808;2023-07-13T11:58:55;3.08;;;1.40;;
80503;SDS011;69825;51.190;6.808;2023-07-13T12:01:23;2.63;;;1.48;;
80503;SDS011;69825;51.190;6.808;2023-07-13T12:03:56;2.60;;;1.50;;
80503;SDS011;69825;51.190;6.808;2023-07-13T12:06:35;2.35;;;1.30;;
80503;SDS011;69825;51.190;6.808;2023-07-13T12:09:10;2.05;;;1.30;;
80503;SDS011;69825;51.190;6.808;2023-07-13T12:11:41;2.35;;;1.30;;
80503;SDS011;69825;51.190;6.808;2023-07-13T12:14:17;2.55;;;1.40;;
80503;SDS011;69825;51.190;6.808;2023-07-13T12:16:43;1.80;;;1.30;;
80503;SDS011;69825;51.190;6.808;2023-07-13T12:19:21;1.85;;;1.20;;
80503;SDS011;69825;51.190;6.808;2023-07-13T12:21:48;2.35;;;1.23;;
80503;SDS011;69825;51.190;6.808;2023-07-13T12:24:18;2.10;;;1.20;;
80503;SDS011;69825;51.190;6.808;2023-07-13T12:26:50;2.08;;;1.30;;
80503;SDS011;69825;51.190;6.808;2023-07-13T12:29:17;2.05;;;1.33;;
80503;SDS011;69825;51.190;6.808;2023-07-13T12:31:44;2.25;;;1.20;;
80503;SDS011;69825;51.190;6.808;2023-07-13T12:34:12;2.08;;;1.20;;
80503;SDS011;69825;51.190;6.808;2023-07-13T12:36:56;1.30;;;1.20;;
80503;SDS011;69825;51.190;6.808;2023-07-13T12:42:10;2.00;;;1.08;;
80503;SDS011;69825;51.190;6.808;2023-07-13T12:44:41;1.20;;;1.10;;
80503;SDS011;69825;51.190;6.808;2023-07-13T12:47:09;2.47;;;1.13;;
80503;SDS011;69825;51.190;6.808;2023-07-13T12:49:40;2.22;;;1.20;;
80503;SDS011;69825;51.190;6.808;2023-07-13T12:52:14;1.27;;;1.17;;
80503;SDS011;69825;51.190;6.808;2023-07-13T12:57:38;1.38;;;1.13;;
80503;SDS011;69825;51.190;6.808;2023-07-13T13:00:06;1.38;;;1.02;;
80503;SDS011;69825;51.190;6.808;2023-07-13T13:02:44;1.38;;;1.17;;
80503;SDS011;69825;51.190;6.808;2023-07-13T13:05:12;1.88;;;0.90;;
80503;SDS011;69825;51.190;6.808;2023-07-13T13:07:39;1.20;;;1.00;;
80503;SDS011;69825;51.190;6.808;2023-07-13T13:10:11;1.85;;;1.02;;
80503;SDS011;69825;51.190;6.808;2023-07-13T13:12:37;1.33;;;1.05;;
80503;SDS011;69825;51.190;6.808;2023-07-13T13:15:02;2.15;;;1.08;;
80503;SDS011;69825;51.190;6.808;2023-07-13T13:17:30;1.40;;;1.10;;
80503;SDS011;69825;51.190;6.808;2023-07-13T13:19:56;1.38;;;1.00;;
80503;SDS011;69825;51.190;6.808;2023-07-13T13:22:22;2.22;;;1.10;;
80503;SDS011;69825;51.190;6.808;2023-07-13T13:24:47;1.83;;;1.10;;
80503;SDS011;69825;51.190;6.808;2023-07-13T13:27:14;1.70;;;1.10;;
80503;SDS011;69825;51.190;6.808;2023-07-13T13:29:44;1.50;;;1.10;;
80503;SDS011;69825;51.190;6.808;2023-07-13T13:32:14;1.35;;;1.20;;
80503;SDS011;69825;51.190;6.808;2023-07-13T13:34:40;1.80;;;1.10;;
80503;SDS011;69825;51.190;6.808;2023-07-13T13:37:16;2.03;;;1.00;;
80503;SDS011;69825;51.190;6.808;2023-07-13T13:39:44;1.50;;;1.00;;
80503;SDS011;69825;51.190;6.808;2023-07-13T13:42:10;1.25;;;1.08;;
80503;SDS011;69825;51.190;6.808;2023-07-13T13:44:36;1.42;;;1.00;;
80503;SDS011;69825;51.190;6.808;2023-07-13T13:47:01;2.85;;;1.20;;
80503;SDS011;69825;51.190;6.808;2023-07-13T13:49:27;1.20;;;0.95;;
80503;SDS011;69825;51.190;6.808;2023-07-13T13:51:54;2.45;;;1.20;;
80503;SDS011;69825;51.190;6.808;2023-07-13T13:54:20;1.83;;;1.10;;
80503;SDS011;69825;51.190;6.808;2023-07-13T13:56:47;1.00;;;0.90;;
80503;SDS011;69825;51.190;6.808;2023-07-13T13:59:14;0.98;;;0.98;;
80503;SDS011;69825;51.190;6.808;2023-07-13T14:01:40;1.48;;;0.93;;
80503;SDS011;69825;51.190;6.808;2023-07-13T14:04:13;1.75;;;1.20;;
80503;SDS011;69825;51.190;6.808;2023-07-13T14:06:41;1.05;;;0.85;;
80503;SDS011;69825;51.190;6.808;2023-07-13T14:09:09;1.17;;;1.08;;
80503;SDS011;69825;51.190;6.808;2023-07-13T14:11:36;3.05;;;1.30;;
80503;SDS011;69825;51.190;6.808;2023-07-13T14:14:02;1.35;;;1.10;;
80503;SDS011;69825;51.190;6.808;2023-07-13T14:16:29;1.15;;;1.05;;
80503;SDS011;69825;51.190;6.808;2023-07-13T14:18:57;1.52;;;1.10;;
80503;SDS011;69825;51.190;6.808;2023-07-13T14:21:25;1.20;;;0.88;;
80503;SDS011;69825;51.190;6.808;2023-07-13T14:23:51;1.27;;;1.10;;
80503;SDS011;69825;51.190;6.808;2023-07-13T14:26:18;1.80;;;1.30;;
80503;SDS011;69825;51.190;6.808;2023-07-13T14:28:47;1.45;;;1.20;;
80503;SDS011;69825;51.190;6.808;2023-07-13T14:31:15;1.30;;;1.10;;
80503;SDS011;69825;51.190;6.808;2023-07-13T14:33:41;1.80;;;1.20;;
80503;SDS011;69825;51.190;6.808;2023-07-13T14:36:25;2.35;;;1.17;;
80503;SDS011;69825;51.190;6.808;2023-07-13T14:39:14;1.10;;;1.00;;
80503;SDS011;69825;51.190;6.808;2023-07-13T14:41:42;1.33;;;1.00;;
80503;SDS011;69825;51.190;6.808;2023-07-13T14:44:10;1.50;;;1.00;;
80503;SDS011;69825;51.190;6.808;2023-07-13T14:46:37;1.08;;;0.90;;
80503;SDS011;69825;51.190;6.808;2023-07-13T14:51:30;2.50;;;1.10;;
80503;SDS011;69825;51.190;6.808;2023-07-13T14:53:57;0.88;;;0.88;;
80503;SDS011;69825;51.190;6.808;2023-07-13T14:56:24;2.20;;;1.05;;
80503;SDS011;69825;51.190;6.808;2023-07-13T14:58:50;1.80;;;1.25;;
80503;SDS011;69825;51.190;6.808;2023-07-13T15:01:18;2.88;;;1.33;;
80503;SDS011;69825;51.190;6.808;2023-07-13T15:03:47;1.33;;;1.20;;
80503;SDS011;69825;51.190;6.808;2023-07-13T15:06:15;1.17;;;1.08;;
80503;SDS011;69825;51.190;6.808;2023-07-13T15:08:42;1.30;;;0.93;;
80503;SDS011;69825;51.190;6.808;2023-07-13T15:11:08;1.67;;;1.05;;
80503;SDS011;69825;51.190;6.808;2023-07-13T15:13:36;1.27;;;1.10;;
80503;SDS011;69825;51.190;6.808;2023-07-13T15:16:03;1.33;;;0.93;;
80503;SDS011;69825;51.190;6.808;2023-07-13T15:18:29;2.28;;;1.20;;
80503;SDS011;69825;51.190;6.808;2023-07-13T15:20:55;1.98;;;0.85;;
80503;SDS011;69825;51.190;6.808;2023-07-13T15:23:22;1.08;;;1.00;;
80503;SDS011;69825;51.190;6.808;2023-07-13T15:25:47;1.98;;;1.10;;
80503;SDS011;69825;51.190;6.808;2023-07-13T15:28:13;0.80;;;0.80;;
80503;SDS011;69825;51.190;6.808;2023-07-13T15:30:43;1.80;;;1.20;;
80503;SDS011;69825;51.190;6.808;2023-07-13T15:33:14;1.25;;;1.05;;
80503;SDS011;69825;51.190;6.808;2023-07-13T15:35:42;1.45;;;1.17;;
80503;SDS011;69825;51.190;6.808;2023-07-13T15:38:42;1.20;;;1.10;;